Weather observations for the past three days for
Detroit/Grosse Ile, Grosse Ile Airport
Imperial (Metric)
Date Time (edt) Wind (mph) Vis. (mi.) Weather Sky Cond. Temperature (ºF) Relative Humidity Wind Chill (°F) Heat Index (°F) Pressure Precipitation (in)
Air Dwpt 6 hour altimeter (in) sea level (mb) 1 hr 3 hr 6 hr
Max. Min.
03 16:55 SW 16 G 26 10.00 Overcast OVC070 60.8 33.8 36% 29.82 0.0
03 16:35 SW 17 G 26 10.00 Mostly Cloudy BKN070 BKN090 62.6 33.8 34% 29.83 0.0
03 16:15 SW 17 G 25 10.00 Mostly Cloudy SCT070 BKN090 62.6 35.6 37% 29.83 0.0
03 15:55 SW 18 G 35 10.00 A Few Clouds FEW070 FEW100 62.6 32 32% 29.84 0.0
03 15:35 SW 18 G 28 10.00 Mostly Cloudy FEW070 BKN090 62.6 33.8 34% 29.85 0.0
03 15:15 W 22 G 31 10.00 Mostly Cloudy and Breezy SCT070 BKN090 62.6 32 32% 29.86 0.0
03 14:55 W 15 G 26 10.00 Overcast FEW070 OVC090 60.8 33.8 36% 29.86 0.0
03 14:35 SW 18 G 26 10.00 Mostly Cloudy BKN090 62.6 33.8 34% 29.87 0.0
03 14:15 SW 21 G 30 10.00 Mostly Cloudy and Breezy BKN080 60.8 35.6 39% 29.88 0.0
03 13:55 SW 14 G 29 10.00 Overcast OVC080 60.8 35.6 60.6 43.3 39% 29.89 0.0
03 13:35 W 15 G 22 10.00 Mostly Cloudy BKN080 BKN120 60.8 35.6 39% 29.9 0.0
03 13:15 W 13 G 23 10.00 Mostly Cloudy SCT080 BKN120 59 35.6 42% 29.91 0.0
03 12:55 W 13 G 20 10.00 Mostly Cloudy SCT095 BKN120 57.2 35.6 44% 29.91 0.0
03 12:35 SW 16 G 23 10.00 Overcast BKN095 OVC110 57.2 35.6 44% 29.92 0.0
03 12:15 W 14 G 25 10.00 Mostly Cloudy BKN085 BKN120 57.2 35.6 44% 29.92 0.0
03 11:55 W 12 G 22 10.00 Partly Cloudy SCT085 59 35.6 42% 29.93 0.0
03 11:35 W 15 10.00 Mostly Cloudy BKN085 55.4 35.6 47% 29.93 0.0
03 11:15 W 14 G 21 10.00 Fair CLR 55.4 33.8 44% 29.93 0.0
03 10:55 W 16 G 23 10.00 Fair CLR 55.4 33.8 44% 29.94 0.0
03 10:35 W 17 G 23 10.00 Fair CLR 53.6 33.8 47% 29.94 0.0
03 10:15 W 17 G 22 10.00 Fair CLR 53.6 33.8 47% 29.94 0.0
03 09:55 W 12 G 21 10.00 Fair CLR 51.8 32 47% 29.94 0.0
03 09:35 W 12 G 22 10.00 Fair CLR 50 30.2 47% 46 29.95 0.0
03 09:15 W 15 G 21 10.00 Fair CLR 50 30.2 47% 45 29.95 0.0
03 08:55 W 13 G 20 10.00 Fair CLR 48.2 30.2 50% 43 29.95 0.0
03 08:35 SW 13 10.00 Fair CLR 46.4 30.2 53% 41 29.95 0.0
03 08:15 SW 9 10.00 Fair CLR 44.6 28.4 53% 40 29.95 0.0
03 07:55 SW 9 10.00 Fair CLR 42.8 28.4 43.3 37.8 57% 38 29.95 0.0
03 07:35 SW 6 10.00 Fair CLR 41 28.4 61% 38 29.96 0.0
03 07:15 SW 7 10.00 Fair CLR 41 26.6 57% 37 29.96 0.0
03 06:55 SW 7 10.00 Fair CLR 39.2 26.6 61% 35 29.96 0.0
03 06:35 SW 6 10.00 Fair CLR 39.2 26.6 61% 36 29.96 0.0
03 06:15 W 7 10.00 Fair CLR 39.2 26.6 61% 35 29.96 0.0
03 05:55 W 7 10.00 Fair CLR 39.2 26.6 61% 35 29.96 0.0
03 05:35 SW 7 10.00 Fair CLR 39.2 26.6 61% 35 29.97 0.0
03 05:15 SW 6 10.00 Fair CLR 37.4 26.6 65% 33 29.97 0.0
03 04:55 SW 6 10.00 Fair CLR 39.2 26.6 61% 36 29.97 0.0
03 04:35 SW 6 10.00 Fair CLR 39.2 26.6 61% 36 29.97 0.0
03 04:15 W 6 10.00 Fair CLR 39.2 26.6 61% 36 29.97 0.0
03 03:55 W 6 10.00 Fair CLR 39.2 26.6 61% 36 29.98 0.0
03 03:35 W 6 10.00 Fair CLR 39.2 26.6 61% 36 29.98 0.0
03 03:15 W 6 10.00 Fair CLR 39.2 28.4 65% 36 29.98 0.0
03 02:55 W 6 10.00 Fair CLR 39.2 28.4 65% 36 29.98 0.0
03 02:35 SW 5 10.00 Fair CLR 39.2 28.4 65% 36 29.99 0.0
03 02:15 SW 5 10.00 Fair CLR 39.2 28.4 65% 36 29.99 0.0
03 01:55 SW 6 10.00 Fair CLR 41 28.4 46.9 40.3 61% 38 29.99 0.0
03 01:35 SW 7 10.00 Fair CLR 41 28.4 61% 37 30 0.0
03 01:15 SW 7 10.00 Fair CLR 41 28.4 61% 37 30 0.0
03 00:55 SW 3 10.00 Fair CLR 41 28.4 61% 30 0.0
03 00:35 SW 7 10.00 Fair CLR 42.8 28.4 57% 39 30 0.0
03 00:15 SW 5 10.00 Fair CLR 41 28.4 61% 38 30 0.0
02 23:55 SW 6 10.00 Fair CLR 42.8 28.4 57% 40 30.01 0.0
02 23:35 SW 5 10.00 Fair CLR 42.8 30.2 61% 41 30.01 0.0
02 23:15 SW 5 10.00 Fair CLR 42.8 28.4 57% 41 30.01 0.0
02 22:55 SW 5 10.00 Fair CLR 42.8 28.4 57% 41 30.01 0.0
02 22:35 SW 5 10.00 Fair CLR 42.8 30.2 61% 41 30.02 0.0
02 22:15 SW 3 10.00 Fair CLR 44.6 28.4 53% 30.02 0.0
02 21:55 SW 3 10.00 Fair CLR 42.8 28.4 57% 30.01 0.0
02 21:35 SW 3 10.00 Fair CLR 44.6 26.6 49% 30.01 0.0
02 21:15 SW 3 10.00 Partly Cloudy SCT080 44.6 26.6 49% 30.01 0.0
02 20:55 SW 3 10.00 Overcast OVC080 44.6 26.6 49% 30.01 0.0
02 20:35 W 3 10.00 Overcast OVC080 46.4 26.6 46% 30.01 0.0
02 20:15 W 5 10.00 Overcast OVC080 46.4 24.8 43% 45 30.01 0.0
02 19:55 W 5 10.00 Overcast OVC080 46.4 24.8 49.8 46 43% 45 30 0.0
02 19:35 W 8 10.00 Overcast OVC080 46.4 23 40% 43 30 0.0
02 19:15 NW 8 10.00 Overcast OVC080 48.2 24.8 40% 45 30.01 0.0
02 18:55 NW 7 10.00 Overcast FEW070 OVC080 48.2 24.8 40% 46 30.01 0.0
02 18:35 NW 9 10.00 Overcast FEW075 OVC080 48.2 24.8 40% 45 30.01 0.0
02 18:15 W 9 10.00 Overcast OVC075 48.2 23 37% 45 30.01 0.0
02 17:55 NW 9 10.00 Overcast BKN065 OVC080 48.2 23 37% 45 30.01 0.0
02 17:35 NW 10 G 16 10.00 Overcast OVC080 48.2 24.8 40% 44 30.01 0.0
02 17:15 NW 6 10.00 Overcast SCT065 OVC080 48.2 23 37% 46 30.01 0.0
02 16:55 NW 8 10.00 Overcast BKN065 OVC080 48.2 24.8 40% 45 30.01 0.0
02 16:35 NW 7 10.00 Overcast BKN065 OVC080 46.4 23 40% 43 30.01 0.0
02 16:15 N 10 10.00 Overcast OVC075 46.4 23 40% 42 30.02 0.0
02 15:55 W 10 G 16 10.00 Overcast OVC065 48.2 24.8 40% 44 30.02 0.0
02 15:35 W 10 10.00 Overcast OVC065 48.2 24.8 40% 44 30.03 0.0
02 15:15 W 5 10.00 Overcast SCT060 OVC070 48.2 24.8 40% 47 30.03 0.0
02 14:55 NW 9 10.00 Overcast OVC070 48.2 24.8 40% 45 30.04 0.0
02 14:35 W 10 10.00 Overcast OVC070 46.4 24.8 43% 42 30.05 0.0
02 14:15 NW 9 10.00 Overcast FEW036 BKN060 OVC070 46.4 24.8 43% 42 30.05 0.0
02 13:55 W 8 10.00 Overcast OVC060 46.4 24.8 48.2 38.1 43% 43 30.05 0.0
02 13:35 W 8 10.00 Overcast OVC060 46.4 24.8 43% 43 30.05 0.0
02 13:15 SW 6 10.00 Overcast BKN060 OVC070 44.6 24.8 46% 42 30.05 0.0
02 12:55 NW 6 10.00 Overcast FEW047 OVC070 46.4 28.4 50% 44 30.06 0.0
02 12:35 W 3 10.00 Overcast OVC070 44.6 28.4 53% 30.06 0.0
02 12:15 NW 5 10.00 Overcast OVC065 42.8 28.4 57% 41 30.06 0.0
02 11:55 N 6 10.00 Overcast OVC070 42.8 28.4 57% 40 30.06 0.0
02 11:35 N 8 10.00 Overcast OVC065 42.8 30.2 61% 39 30.06 0.0
02 11:15 NW 10 10.00 Overcast FEW042 OVC050 42.8 30.2 61% 38 30.06 0.0
02 10:55 N 12 10.00 Mostly Cloudy SCT042 BKN050 BKN060 42.8 28.4 57% 37 30.05 0.0
02 10:35 NW 6 10.00 Mostly Cloudy FEW033 SCT055 BKN070 42.8 30.2 61% 40 30.05 0.0
02 10:15 NW 10 10.00 Mostly Cloudy SCT034 BKN040 BKN046 42.8 30.2 61% 38 30.05 0.0
02 09:55 N 7 10.00 Mostly Cloudy SCT033 SCT040 BKN047 42.8 30.2 61% 39 30.05 0.0
02 09:35 N 8 10.00 Mostly Cloudy BKN026 BKN037 BKN044 42.8 30.2 61% 39 30.05 0.0
02 09:15 NW 6 10.00 Overcast BKN024 BKN030 OVC080 41 33.8 76% 38 30.06 0.0
02 08:55 Vrbl 6 10.00 Overcast FEW021 OVC080 42.8 33.8 71% 40 30.06 0.0
02 08:35 NW 5 10.00 Partly Cloudy SCT080 39.2 35.6 87% 36 30.06 0.0
02 08:15 NW 6 10.00 A Few Clouds FEW080 39.2 33.8 81% 36 30.06 0.0
02 07:55 NW 3 10.00 Mostly Cloudy BKN080 37.4 33.8 39.2 37 87% 30.05 0.0
02 07:35 NW 5 10.00 Overcast OVC080 37.4 33.8 87% 34 30.05 0.0
02 07:15 NW 3 10.00 Overcast OVC080 37.4 35.6 93% 30.05 0.0
02 06:55 NW 5 10.00 Overcast FEW048 OVC080 37.4 35.6 93% 34 30.04 0.0
02 06:35 N 5 10.00 Overcast BKN046 BKN070 OVC080 37.4 35.6 93% 34 30.04 0.0
02 06:15 N 5 10.00 Overcast BKN044 BKN070 OVC080 37.4 33.8 87% 34 30.04 0.0
02 05:55 N 2 10.00 Overcast OVC070 37.4 33.8 87% 30.04 0.0
02 05:35 N 3 10.00 Overcast OVC070 37.4 33.8 87% 30.03 0.0
02 05:15 N 2 10.00 Overcast BKN060 OVC080 39.2 33.8 81% 30.03 0.0
02 04:55 N 1 10.00 Overcast SCT040 BKN050 OVC080 37.4 33.8 87% 30.03 0.0
02 04:35 N 2 10.00 Overcast FEW022 SCT040 OVC050 37.4 32 81% 30.03 0.0
02 04:15 N 2 10.00 Overcast SCT022 BKN044 OVC050 37.4 32 81% 30.03 0.0
02 03:55 N 3 10.00 Overcast SCT044 OVC050 37.4 32 81% 30.03 0.0
02 03:35 NE 8 10.00 Overcast OVC047 37.4 32 81% 32 30.02 0.0
02 03:15 NE 3 10.00 Overcast OVC043 37.4 32 81% 30.03 0.0
02 02:55 N 6 10.00 Overcast SCT032 OVC039 39.2 32 75% 36 30.03 0.0
02 02:35 N 8 10.00 Light Rain OVC032 39.2 32 75% 34 30.03 0.0
02 02:15 N 6 10.00 Light Rain BKN030 OVC060 39.2 32 75% 36 30.03 0.0
02 01:55 NE 7 10.00 Light Drizzle FEW032 SCT047 OVC060 39.2 30.2 45.1 38.8 70% 35 30.03 0.0
02 01:35 NE 9 10.00 Overcast SCT038 SCT047 OVC075 39.2 32 75% 34 30.03 0.0
02 01:15 NE 9 10.00 Overcast OVC036 39.2 33.8 81% 34 30.03 0.0
02 00:55 NE 9 10.00 Light Rain OVC030 41 35.6 81% 36 30.03 0.0
02 00:35 NE 9 10.00 Overcast BKN030 OVC040 41 33.8 76% 36 30.03 0.0
02 00:15 E 6 10.00 Overcast BKN038 BKN044 OVC050 41 33.8 76% 38 30.02 0.0
01 23:55 E 5 10.00 Overcast BKN039 OVC065 41 35.6 81% 38 30.02 0.0
01 23:35 E 6 10.00 Overcast BKN042 OVC065 41 35.6 81% 38 30.02 0.0
01 23:15 E 6 10.00 Mostly Cloudy FEW042 BKN055 BKN095 41 35.6 81% 38 30.01 0.0
01 22:55 E 5 10.00 Mostly Cloudy SCT060 BKN065 BKN075 39.2 35.6 87% 36 30.01 0.0
01 22:35 E 6 10.00 Overcast BKN060 BKN075 OVC095 41 37.4 87% 38 30.01 0.0
01 22:15 E 5 10.00 Overcast FEW041 BKN055 OVC070 41 37.4 87% 38 30.01 0.0
01 21:55 E 5 10.00 Overcast FEW039 FEW045 OVC060 41 37.4 87% 38 30 0.0
01 21:35 E 7 10.00 Overcast OVC060 41 37.4 87% 37 29.99 0.0
01 21:15 NE 9 10.00 Light Drizzle OVC060 41 37.4 87% 36 29.99 0.0
01 20:55 NE 12 10.00 Overcast SCT049 BKN060 OVC070 42.8 39.2 87% 37 29.98 0.0
01 20:35 N 1 10.00 Overcast FEW047 BKN055 OVC070 44.6 39.2 81% 29.98 0.0
01 20:15 N 3 10.00 Light Rain SCT033 BKN047 OVC055 44.6 39.2 81% 29.97 0.0
01 19:55 N 8 10.00 Overcast SCT045 BKN050 OVC070 44.6 39.2 48.7 44.8 81% 41 29.97 0.0
01 19:35 E 2 10.00 Overcast SCT046 BKN050 OVC095 44.6 39.2 81% 29.96 0.0
01 19:15 NE 3 10.00 Overcast SCT036 BKN046 OVC095 44.6 39.2 81% 29.96 0.0
01 18:55 S 3 10.00 Overcast FEW036 FEW065 OVC095 46.4 39.2 76% 29.96 0.0
01 18:35 S 5 10.00 Overcast BKN036 BKN065 OVC095 46.4 37.4 71% 45 29.96 0.0
01 18:15 Vrbl 2 10.00 Overcast BKN034 BKN046 OVC055 46.4 37.4 71% 29.96 0.0
01 17:55 S 6 10.00 Light Rain FEW031 SCT050 OVC065 46.4 37.4 71% 44 29.95 0.0
01 17:35 S 5 10.00 Overcast BKN065 BKN075 OVC090 46.4 37.4 71% 45 29.95 0.0
01 17:15 S 6 10.00 Light Rain SCT050 BKN065 OVC090 46.4 37.4 71% 44 29.94 0.0
01 16:55 SE 2 10.00 Overcast SCT044 BKN049 OVC085 46.4 37.4 71% 29.94 0.0
01 16:35 S 7 10.00 Overcast FEW050 FEW060 OVC080 46.4 37.4 71% 43 29.94 0.0
01 16:15 S 3 10.00 Light Rain BKN050 BKN065 OVC080 46.4 37.4 71% 29.94 0.0
01 15:55 S 6 10.00 Overcast OVC080 46.4 37.4 71% 44 29.94 0.0
01 15:35 S 5 10.00 Overcast FEW065 OVC080 48.2 39.2 71% 47 29.94 0.0
01 15:15 Vrbl 2 10.00 Overcast SCT065 OVC080 46.4 37.4 71% 29.93 0.0
01 14:55 Vrbl 2 10.00 Overcast FEW048 BKN060 OVC075 46.4 39.2 76% 29.93 0.0
01 14:35 N 5 10.00 Light Rain SCT031 BKN041 OVC060 46.4 37.4 71% 45 29.93 0.0
01 14:15 E 6 10.00 Overcast BKN031 BKN080 OVC090 46.4 37.4 71% 44 29.93 0.0
01 13:55 Vrbl 5 10.00 Mostly Cloudy BKN070 BKN090 46.4 39.2 47.3 41.5 76% 45 29.92 0.0
01 13:35 SE 5 10.00 Overcast BKN060 OVC070 46.4 41 82% 45 29.92 0.0
01 13:15 E 7 10.00 Overcast FEW035 OVC050 42.8 39.2 87% 39 29.93 0.0
01 12:55 E 9 8.00 Light Rain FEW020 BKN035 OVC042 42.8 37.4 81% 38 29.93 0.0
01 12:35 NW 5 10.00 Light Rain SCT039 BKN047 OVC060 44.6 39.2 81% 43 29.93 0.0
01 12:15 E 3 10.00 Light Drizzle SCT039 BKN046 OVC050 42.8 37.4 81% 29.93 0.0
01 11:55 N 5 10.00 Light Rain FEW031 SCT041 OVC048 42.8 39.2 87% 41 29.93 0.0
01 11:35 N 6 7.00 Light Rain Fog/Mist SCT023 BKN032 OVC044 42.8 39.2 87% 40 29.92 0.0
01 11:15 Vrbl 2 10.00 Light Rain SCT015 BKN029 OVC044 42.8 37.4 81% 29.93 0.0
01 10:55 E 5 7.00 Light Rain Fog/Mist OVC015 42.8 41 93% 41 29.92 0.0
01 10:35 S 2 10.00 Light Rain BKN015 BKN020 OVC025 42.8 39.2 87% 29.93 0.0
01 10:15 NW 3 10.00 Overcast SCT014 BKN023 OVC048 44.6 39.2 81% 29.93 0.0
01 09:55 W 7 10.00 Overcast SCT010 BKN018 OVC049 42.8 39.2 87% 39 29.92 0.0
01 09:35 NW 6 10.00 Overcast BKN008 BKN023 OVC065 42.8 41 93% 40 29.92 0.0
01 09:15 NW 7 10.00 Light Rain SCT030 BKN039 OVC065 42.8 41 93% 39 29.92 0.0
01 08:55 W 7 10.00 Light Rain FEW027 BKN036 OVC043 41 39.2 93% 37 29.92 0.0
01 08:35 W 5 10.00 Light Rain SCT032 BKN038 OVC055 41 39.2 93% 38 29.93 0.0
01 08:15 NW 3 10.00 Light Rain FEW031 BKN048 OVC065 42.8 39.2 87% 29.92 0.0
01 07:55 W 5 10.00 Overcast OVC060 41 39.2 43 40.6 93% 38 29.92 0.0
01 07:35 W 5 10.00 Overcast BKN060 OVC075 41 39.2 93% 38 29.92 0.0
01 07:15 NW 3 10.00 Mostly Cloudy SCT070 BKN080 42.8 39.2 87% 29.91 0.0
01 06:55 SW 3 10.00 Light Rain FEW055 SCT070 41 37.4 87% 29.91 0.0
01 06:35 S 3 10.00 Mostly Cloudy BKN049 41 37.4 87% 29.91 0.0
01 06:15 S 3 10.00 Overcast OVC049 41 37.4 87% 29.91 0.0
01 05:55 SE 3 10.00 Overcast OVC049 41 37.4 87% 29.9 0.0
01 05:35 S 2 10.00 Overcast OVC047 41 37.4 87% 29.91 0.0
01 05:15 S 2 10.00 Overcast BKN045 OVC055 41 39.2 93% 29.92 0.0
01 04:55 SE 3 10.00 Light Rain BKN043 OVC055 41 37.4 87% 29.92 0.0 0.01
01 04:35 Calm 10.00 Light Rain OVC041 41 39.2 93% 29.94 0.0
01 04:15 N 5 10.00 Light Rain BKN041 41 37.4 87% 38 29.94 0.0
01 03:55 NW 6 10.00 Light Rain CLR 42.8 35.6 76% 40 29.94 0.0 0.01
01 03:35 Vrbl 5 10.00 Light Rain FEW036 FEW055 42.8 37.4 81% 41 29.94 0.0
01 03:15 S 1 10.00 Light Rain FEW036 FEW048 BKN065 42.8 35.6 76% 29.93 0.0
01 02:55 Vrbl 3 9.00 Light Rain SCT060 SCT065 42.8 37.4 81% 29.93 0.0 0.02
01 02:35 S 5 10.00 Light Rain CLR 42.8 39.2 87% 41 29.95 0.0
01 02:15 S 5 10.00 Light Rain FEW037 FEW043 SCT050 42.8 39.2 87% 41 29.94 0.0
01 01:55 Vrbl 2 10.00 Light Rain FEW037 SCT050 SCT065 42.8 37.4 51.1 42.4 81% 29.95 0.0 0.03
01 01:35 Vrbl 1 10.00 Light Rain FEW050 42.8 37.4 81% 29.96 0.0
01 01:15 NW 5 10.00 Light Rain CLR 42.8 35.6 76% 41 29.96 0.0
01 00:55 N 12 10.00 Light Drizzle CLR 44.6 35.6 71% 39 29.96 0.0
01 00:35 W 7 10.00 Light Drizzle SCT055 46.4 33.8 62% 43 29.95 0.0
01 00:15 W 7 10.00 Light Rain FEW055 46.4 32 57% 43 29.95 0.0
30 23:55 SW 9 G 18 10.00 Partly Cloudy FEW070 SCT080 48.2 30.2 50% 45 29.95 0.0
30 23:35 W 7 10.00 Overcast SCT070 OVC090 48.2 28.4 46% 46 29.96 0.0
30 23:15 W 7 10.00 Overcast SCT070 SCT080 OVC090 48.2 30.2 50% 46 29.96 0.0
30 22:55 W 6 10.00 Overcast OVC080 48.2 30.2 50% 46 29.96 0.0
30 22:35 W 6 10.00 Mostly Cloudy SCT080 BKN090 BKN110 48.2 30.2 50% 46 29.96 0.0
30 22:15 W 5 10.00 Partly Cloudy FEW080 SCT090 48.2 28.4 46% 47 29.95 0.0
30 21:55 W 3 10.00 Mostly Cloudy BKN080 BKN100 48.2 30.2 50% 29.95 0.0
30 21:35 W 5 10.00 Mostly Cloudy SCT080 BKN100 48.2 30.2 50% 47 29.94 0.0
30 21:15 W 3 10.00 Overcast BKN090 OVC110 50 30.2 47% 29.93 0.0
30 20:55 W 5 10.00 Overcast OVC100 50 30.2 47% 49 29.94 0.0
30 20:35 NW 6 10.00 Overcast OVC100 50 30.2 47% 48 29.93 0.0
30 20:15 NW 7 10.00 Mostly Cloudy BKN100 BKN120 51.8 28.4 41% 29.93 0.0
30 19:55 NW 6 10.00 Partly Cloudy FEW070 SCT100 51.8 30.2 56.8 50.9 44% 29.93 0.0
30 19:35 NW 10 10.00 Partly Cloudy SCT070 51.8 28.4 41% 29.93 0.0
30 19:15 NW 7 10.00 Partly Cloudy SCT070 51.8 28.4 41% 29.93 0.0
30 18:55 NW 10 10.00 A Few Clouds FEW070 53.6 28.4 38% 29.93 0.0
30 18:35 NW 7 10.00 Partly Cloudy SCT070 53.6 28.4 38% 29.94 0.0
30 18:15 NW 10 10.00 Mostly Cloudy BKN070 53.6 28.4 38% 29.94 0.0
30 17:55 NW 9 10.00 Partly Cloudy SCT075 53.6 26.6 35% 29.93 0.0
30 17:35 NW 13 G 18 10.00 Partly Cloudy SCT075 55.4 28.4 36% 29.93 0.0
30 17:15 W 14 G 18 10.00 Partly Cloudy SCT075 53.6 28.4 38% 29.93 0.0
Date Time (edt) Wind (mph) Vis. (mi.) Weather Sky Cond. Air Dwpt Max. Min. Relative Humidity Wind Chill (°F) Heat Index (°F) altimeter (in) sea level (mb) 1 hr 3 hr 6 hr
6 hour
Temperature (ºF) Pressure Precipitation (in)